首页
METAR-TAF:

METAR-TAF

机场 :

Naval Station Mayport (Adm. David L. McDonald Field)

Mayport, 佛罗里达州, 美国

纬度: 30-23-45N, 经度: 081-25-21W, 海拔: 5米

当前天气观测

该预报发布于36分钟前的23:52 UTC
风速5节,风向东转东北
温度 16°C
湿度 48%
气压 1021 hPa
能見度: 16.1公里
阴天层高于25000英尺

METAR: KNRB 182352Z 06005KT 10SM OVC250 16/05 A3016 RMK AO2 SLP212 T01560050 10183 20156 53010

时间: 20:28 (00:28 UTC)

预报

预报有效从18日的 23点(UTC)到 19日的 23点(UTC)
风速8节,风向北转东北
能见度10公里或以上
散云层高于10000英尺
阴天层高于20000英尺
从 19日的 0800点(UTC)
风速15节,风向北转东北,有时为20节阵风
能见度10公里或以上
少量云层高于2000英尺
多云层高于9000英尺
多云层高于20000英尺
从 19日的 1400点(UTC)
风速18节,风向北转东北,有时为30节阵风
能見度: 1909
散云层高于2000英尺
多云层高于6000英尺
阴天层高于20000英尺

TAF: KNRB 1823/1923 03008KT 9999 SCT100 OVC200 QNH3010INS FM190800 03015G20KT 9999 FEW020 BKN090 BKN200 QNH3014INS FM191400 03018G30KT 9999 SCT020 BKN060 OVC200 QNH3016INS AUTOMATED SENSOR METWATCH 1904 TIL 1909 T14/1911Z T17/1915Z FN20022

超过4000个机场的气象观测和天气预报(METAR&TAF报告)。

可查询的气象台以黄色和红色小点在地图上表示。

将鼠标移到小点上方,可查看气象台名称。

然后点击查看天气观测和预报。

如需切换地图:点击带黑十字的绿色按钮放大地图;点击带横线的绿色按钮缩小地图;或者点击绿色箭头查看邻近地区的地图。


METAR-TAF: